Time;durP1;ratioP1;P1;durP2;ratioP2;P2;SDS_P1;SDS_P2;PMS_P1;PMS_P2;Temp;Humidity;BMP_temperature;BMP_pressure;BME280_temperature;BME280_humidity;BME280_pressure;Samples;Min_cycle;Max_cycle;Signal;HPM_P1;HPM_P2
2023/03/20 05:31:23;;;;;;;9.40;3.30;;;10.00;73.70;;;;;;5499014;23;20043;-75
2023/03/20 05:33:49;;;;;;;6.95;3.03;;;10.00;73.90;;;;;;4974153;28;20478;-75
2023/03/20 05:36:15;;;;;;;8.43;3.33;;;10.00;73.80;;;;;;4976771;28;20535;-81
2023/03/20 05:38:40;;;;;;;6.70;3.63;;;10.00;73.90;;;;;;4962695;28;20076;-77
2023/03/20 05:41:06;;;;;;;4.55;2.65;;;10.10;73.80;;;;;;4980011;28;20093;-82
2023/03/20 05:43:32;;;;;;;4.88;3.13;;;10.00;73.90;;;;;;4971600;28;20031;-81
2023/03/20 05:45:57;;;;;;;5.57;3.03;;;10.10;74.00;;;;;;4960485;29;20045;-81
2023/03/20 05:48:23;;;;;;;6.35;2.88;;;10.10;73.80;;;;;;4959171;29;20514;-80
2023/03/20 05:50:49;;;;;;;9.77;2.90;;;10.10;73.90;;;;;;4960223;28;20035;-81
2023/03/20 05:53:15;;;;;;;4.95;3.50;;;10.10;73.80;;;;;;4960487;29;20454;-80
2023/03/20 05:55:43;;;;;;;10.32;3.28;;;10.20;73.60;;;;;;4960191;28;20032;-79
2023/03/20 05:58:10;;;;;;;8.40;3.13;;;10.10;73.70;;;;;;4943279;29;20086;-80
2023/03/20 06:00:36;;;;;;;5.78;2.88;;;10.10;73.70;;;;;;4949445;28;20102;-84
2023/03/20 06:03:02;;;;;;;5.15;2.88;;;10.00;73.90;;;;;;4977625;28;20037;-84
2023/03/20 06:05:28;;;;;;;7.63;2.90;;;10.10;74.00;;;;;;4979763;28;20058;-82
2023/03/20 06:07:53;;;;;;;7.60;2.97;;;10.10;73.90;;;;;;4971941;28;20412;-84
2023/03/20 06:10:28;;;;;;;7.50;3.25;;;10.20;73.90;;;;;;4965883;28;20030;-84
2023/03/20 06:12:55;;;;;;;5.65;2.88;;;10.20;73.80;;;;;;4964579;28;20023;-77
2023/03/20 06:15:21;;;;;;;9.90;3.42;;;10.20;73.60;;;;;;4970313;28;20027;-77
2023/03/20 06:17:46;;;;;;;14.48;3.30;;;10.20;73.50;;;;;;4978524;28;20271;-76
2023/03/20 06:20:12;;;;;;;9.27;3.65;;;10.20;73.50;;;;;;4979720;28;20080;-77
2023/03/20 06:22:38;;;;;;;6.72;2.55;;;10.20;73.50;;;;;;4973081;28;20080;-77
2023/03/20 06:25:05;;;;;;;7.10;3.00;;;10.30;73.40;;;;;;4961509;28;20066;-77
2023/03/20 06:27:31;;;;;;;10.35;3.72;;;10.30;73.40;;;;;;4959970;28;20053;-77
2023/03/20 06:29:56;;;;;;;10.52;3.20;;;10.30;73.40;;;;;;4978218;28;20039;-77
2023/03/20 06:32:22;;;;;;;5.90;3.65;;;10.30;73.30;;;;;;4960572;28;20054;-77
2023/03/20 06:34:49;;;;;;;5.30;2.80;;;10.20;73.40;;;;;;4978313;28;20490;-78
2023/03/20 06:37:14;;;;;;;7.13;3.55;;;10.20;73.60;;;;;;4972502;28;20046;-78
2023/03/20 06:39:40;;;;;;;8.93;4.82;;;10.10;73.80;;;;;;4964020;28;20670;-77
2023/03/20 06:42:06;;;;;;;15.73;5.47;;;10.10;73.80;;;;;;4974447;28;20494;-77
2023/03/20 06:44:31;;;;;;;13.85;6.43;;;10.10;73.90;;;;;;4966572;28;20383;-77
2023/03/20 06:46:57;;;;;;;13.70;5.97;;;10.20;73.80;;;;;;4971553;28;20066;-77
2023/03/20 06:49:23;;;;;;;10.15;6.00;;;10.20;73.90;;;;;;4976208;28;20031;-77
2023/03/20 06:51:49;;;;;;;12.07;6.18;;;10.30;73.70;;;;;;4975934;28;20082;-78
2023/03/20 06:54:14;;;;;;;18.88;8.48;;;10.40;73.50;;;;;;4968620;28;20548;-77
2023/03/20 06:56:40;;;;;;;17.35;8.85;;;10.40;73.30;;;;;;4976544;28;20027;-78
2023/03/20 06:59:06;;;;;;;18.98;11.38;;;10.50;73.10;;;;;;4975860;28;20023;-77
2023/03/20 07:01:32;;;;;;;19.42;12.00;;;10.50;73.00;;;;;;4978158;28;20074;-77
2023/03/20 07:03:58;;;;;;;28.73;18.25;;;10.60;73.00;;;;;;4976620;28;20031;-79
2023/03/20 07:06:23;;;;;;;27.55;14.85;;;10.50;72.90;;;;;;4963679;28;20039;-78
2023/03/20 07:08:51;;;;;;;23.50;14.20;;;10.50;72.80;;;;;;4972515;28;20060;-79
2023/03/20 07:11:17;;;;;;;20.95;12.88;;;10.60;73.00;;;;;;4974619;28;20604;-78
2023/03/20 07:13:43;;;;;;;24.77;12.65;;;10.70;73.00;;;;;;4976669;28;20018;-79
2023/03/20 07:16:11;;;;;;;18.58;10.07;;;10.80;72.80;;;;;;4976679;28;20031;-78
2023/03/20 07:18:37;;;;;;;15.85;9.48;;;10.90;72.60;;;;;;4976885;28;20030;-84
2023/03/20 07:21:05;;;;;;;17.25;9.73;;;11.00;72.50;;;;;;4959472;28;20030;-80
2023/03/20 07:23:33;;;;;;;18.00;9.30;;;11.10;72.10;;;;;;4959810;28;20022;-81
2023/03/20 07:25:58;;;;;;;20.58;9.65;;;11.20;72.10;;;;;;4959519;28;20038;-80
2023/03/20 07:28:24;;;;;;;16.25;9.15;;;11.20;71.90;;;;;;4958404;28;20111;-80
2023/03/20 07:30:51;;;;;;;19.92;9.95;;;11.30;71.70;;;;;;4976279;28;20051;-80
2023/03/20 07:33:16;;;;;;;24.30;10.32;;;11.30;71.80;;;;;;4974024;28;20026;-82
2023/03/20 07:35:42;;;;;;;21.13;9.68;;;11.40;71.90;;;;;;4976917;28;20035;-83
2023/03/20 07:38:08;;;;;;;18.00;9.13;;;11.50;71.60;;;;;;4958106;28;20023;-82
2023/03/20 07:40:33;;;;;;;19.38;7.97;;;11.70;71.20;;;;;;4976407;28;20046;-80
2023/03/20 07:43:00;;;;;;;12.57;5.85;;;12.70;69.60;;;;;;4976696;28;20022;-80
2023/03/20 07:45:25;;;;;;;18.77;6.07;;;13.40;67.20;;;;;;4976584;28;20038;-82
2023/03/20 07:47:51;;;;;;;18.83;6.60;;;13.30;66.70;;;;;;4974297;28;20015;-81
2023/03/20 07:50:17;;;;;;;10.48;4.43;;;13.40;66.40;;;;;;4976815;28;20045;-81
2023/03/20 07:52:47;;;;;;;13.07;4.18;;;14.40;64.40;;;;;;4977330;28;20093;-78
2023/03/20 07:55:13;;;;;;;10.68;3.88;;;15.30;62.00;;;;;;4959439;28;20058;-79
2023/03/20 07:57:39;;;;;;;12.35;3.20;;;16.30;59.10;;;;;;4957009;28;20031;-78
2023/03/20 08:00:05;;;;;;;10.77;2.92;;;17.00;57.10;;;;;;4959196;28;20435;-80
2023/03/20 08:02:33;;;;;;;12.10;3.38;;;17.50;55.50;;;;;;4976177;28;20029;-80
2023/03/20 08:04:59;;;;;;;9.98;3.10;;;17.70;54.40;;;;;;4973352;28;20037;-79
2023/03/20 08:07:24;;;;;;;10.85;2.50;;;18.20;53.30;;;;;;4975062;28;20477;-84
2023/03/20 08:09:51;;;;;;;8.45;2.80;;;17.90;53.10;;;;;;4974490;28;20062;-77
2023/03/20 08:12:17;;;;;;;13.32;3.33;;;17.00;55.20;;;;;;4975027;28;20034;-77
2023/03/20 08:14:43;;;;;;;12.82;2.75;;;16.10;57.60;;;;;;4970800;28;20034;-78
2023/03/20 08:17:08;;;;;;;10.63;3.22;;;15.50;59.70;;;;;;4974709;28;20023;-78
2023/03/20 08:19:35;;;;;;;10.25;3.40;;;15.10;61.10;;;;;;4974946;28;20023;-78
2023/03/20 08:22:01;;;;;;;14.88;3.50;;;14.90;62.10;;;;;;4972389;28;20023;-78
2023/03/20 08:24:27;;;;;;;12.50;3.70;;;14.70;63.40;;;;;;4975006;28;20058;-78
2023/03/20 08:26:52;;;;;;;10.13;4.07;;;14.50;63.50;;;;;;4970268;28;20409;-78
2023/03/20 08:29:18;;;;;;;13.02;4.95;;;14.40;64.50;;;;;;4975617;28;20023;-78
2023/03/20 08:31:44;;;;;;;12.40;4.35;;;14.40;64.80;;;;;;4975627;28;20050;-77
2023/03/20 08:34:10;;;;;;;11.50;4.10;;;14.40;65.40;;;;;;4971093;28;20086;-77
2023/03/20 08:36:38;;;;;;;15.98;5.43;;;14.30;65.30;;;;;;4975247;28;20034;-77
2023/03/20 08:39:05;;;;;;;11.82;5.50;;;14.30;65.70;;;;;;4974373;28;20030;-77
2023/03/20 08:41:32;;;;;;;17.73;4.95;;;14.30;65.50;;;;;;4973902;28;20067;-77
2023/03/20 08:43:57;;;;;;;13.23;4.63;;;14.20;66.00;;;;;;4974669;28;20088;-78
2023/03/20 08:46:23;;;;;;;18.65;4.32;;;14.20;66.20;;;;;;4973416;28;20043;-77
2023/03/20 08:48:48;;;;;;;14.38;4.45;;;14.20;66.10;;;;;;4974967;28;20456;-78
2023/03/20 08:51:14;;;;;;;16.23;5.00;;;14.30;66.30;;;;;;5001065;28;20035;-77
2023/03/20 08:53:40;;;;;;;12.98;3.67;;;14.30;66.40;;;;;;4975023;28;20390;-77
2023/03/20 08:56:07;;;;;;;7.85;3.40;;;14.30;66.10;;;;;;4974842;28;20031;-78
2023/03/20 08:58:32;;;;;;;9.18;2.72;;;14.40;66.40;;;;;;4955862;28;20039;-77
2023/03/20 09:01:07;;;;;;;8.38;3.35;;;14.50;65.70;;;;;;4955571;28;20027;-77
2023/03/20 09:03:33;;;;;;;16.20;3.80;;;14.60;66.10;;;;;;4974584;28;20035;-77
2023/03/20 09:05:58;;;;;;;7.07;3.10;;;14.80;65.50;;;;;;4973672;28;20062;-78
2023/03/20 09:08:24;;;;;;;11.82;3.53;;;15.20;64.60;;;;;;4969526;28;20046;-78
2023/03/20 09:10:50;;;;;;;11.23;3.35;;;15.20;64.10;;;;;;4974037;28;20110;-78
2023/03/20 09:13:16;;;;;;;12.43;4.13;;;15.10;64.10;;;;;;4974811;28;20111;-78
2023/03/20 09:15:42;;;;;;;6.97;3.03;;;15.10;64.30;;;;;;4973438;28;20058;-78
2023/03/20 09:18:07;;;;;;;13.18;2.90;;;15.20;64.50;;;;;;4972343;28;20039;-78
2023/03/20 09:20:33;;;;;;;15.13;3.50;;;15.10;64.80;;;;;;4974123;28;20074;-77
2023/03/20 09:22:59;;;;;;;10.98;3.92;;;15.20;64.50;;;;;;4971679;28;20031;-77
2023/03/20 09:25:25;;;;;;;15.35;3.63;;;15.30;63.90;;;;;;4974376;28;20035;-78
2023/03/20 09:27:54;;;;;;;6.10;2.40;;;15.30;63.70;;;;;;4973345;28;20299;-77
2023/03/20 09:30:21;;;;;;;9.32;2.65;;;15.30;63.00;;;;;;4974216;28;20058;-77
2023/03/20 09:32:47;;;;;;;9.07;2.15;;;15.90;62.70;;;;;;4974541;28;20109;-77
2023/03/20 09:35:12;;;;;;;6.95;2.47;;;16.30;61.10;;;;;;4974466;28;20058;-77
2023/03/20 09:37:38;;;;;;;12.98;2.08;;;16.90;60.10;;;;;;4968782;28;20045;-77
2023/03/20 09:40:04;;;;;;;9.38;1.95;;;17.10;58.50;;;;;;4973573;28;20031;-77
2023/03/20 09:42:56;;;;;;;11.30;3.80;;;17.20;58.30;;;;;;4974304;28;20031;-77
2023/03/20 09:45:40;;;;;;;11.23;1.88;;;17.40;57.70;;;;;;4970453;28;20434;-78
2023/03/20 09:48:18;;;;;;;8.27;1.67;;;18.00;56.80;;;;;;4975146;28;20035;-80
2023/03/20 09:51:30;;;;;;;7.22;1.85;;;17.60;56.70;;;;;;4970516;28;20026;-80
2023/03/20 09:54:02;;;;;;;6.05;1.63;;;17.10;57.10;;;;;;4944620;28;20097;-80
2023/03/20 09:56:29;;;;;;;8.10;1.65;;;16.60;58.70;;;;;;4974458;28;20072;-79
2023/03/20 09:59:01;;;;;;;11.93;2.30;;;16.40;59.80;;;;;;4974264;28;20035;-76
2023/03/20 10:01:32;;;;;;;9.75;2.17;;;16.10;60.30;;;;;;4970226;28;20031;-76
2023/03/20 10:04:03;;;;;;;5.07;1.45;;;15.80;60.70;;;;;;4973969;28;20569;-76
2023/03/20 10:06:28;;;;;;;8.25;2.03;;;15.70;61.30;;;;;;4971423;28;20059;-76
2023/03/20 10:08:54;;;;;;;6.15;1.83;;;15.60;61.20;;;;;;4973607;28;20054;-76
2023/03/20 10:11:29;;;;;;;8.35;2.03;;;15.60;61.70;;;;;;4972056;28;20109;-76
2023/03/20 10:14:13;;;;;;;6.82;1.95;;;15.70;61.30;;;;;;4974043;28;20038;-75
2023/03/20 10:16:53;;;;;;;5.40;1.75;;;15.70;61.30;;;;;;4972377;28;20513;-78
2023/03/20 10:19:48;;;;;;;7.85;1.80;;;15.90;61.20;;;;;;4974671;28;20030;-75
2023/03/20 10:22:56;;;;;;;7.53;1.70;;;16.60;60.00;;;;;;4975904;28;20023;-77
2023/03/20 10:25:39;;;;;;;8.93;1.40;;;17.10;59.10;;;;;;4913348;29;20144;-77
2023/03/20 10:28:15;;;;;;;5.70;1.30;;;17.30;57.40;;;;;;4971256;28;20077;-77
2023/03/20 10:30:44;;;;;;;6.63;1.65;;;17.30;56.60;;;;;;4976954;28;20133;-77
2023/03/20 10:33:30;;;;;;;10.55;1.90;;;17.00;56.20;;;;;;4973810;28;20027;-77
2023/03/20 10:36:25;;;;;;;8.77;2.08;;;16.90;57.80;;;;;;4974636;28;20097;-76
2023/03/20 10:39:14;;;;;;;5.68;1.92;;;17.00;57.10;;;;;;4977197;28;20386;-76
2023/03/20 10:41:46;;;;;;;5.15;1.92;;;17.20;57.30;;;;;;4988145;28;20031;-76
2023/03/20 10:44:21;;;;;;;10.80;2.00;;;17.20;57.20;;;;;;4978189;28;20402;-77
2023/03/20 10:46:52;;;;;;;4.45;1.40;;;17.10;56.30;;;;;;4977848;28;20023;-76
2023/03/20 10:49:38;;;;;;;8.85;2.15;;;16.90;57.20;;;;;;4975264;28;20106;-76
2023/03/20 10:52:10;;;;;;;6.80;2.03;;;16.80;57.10;;;;;;4938906;28;20639;-77
2023/03/20 10:54:41;;;;;;;7.25;1.65;;;16.90;57.30;;;;;;4967207;28;20370;-76
2023/03/20 10:57:23;;;;;;;10.52;1.73;;;16.90;56.90;;;;;;4959644;28;20035;-76
2023/03/20 10:59:54;;;;;;;14.20;2.08;;;16.80;56.10;;;;;;4974428;28;20485;-76
2023/03/20 11:02:22;;;;;;;5.80;2.00;;;16.80;56.10;;;;;;4977317;28;20113;-77
2023/03/20 11:04:49;;;;;;;4.80;1.38;;;17.00;56.20;;;;;;4958977;28;20038;-76
2023/03/20 11:07:27;;;;;;;6.07;2.15;;;17.00;55.20;;;;;;4976150;28;20031;-77
2023/03/20 11:10:05;;;;;;;7.65;2.20;;;17.10;55.70;;;;;;4976287;28;20031;-77
2023/03/20 11:12:38;;;;;;;6.47;1.80;;;17.00;56.10;;;;;;4972439;28;20026;-74
2023/03/20 11:15:18;;;;;;;7.90;1.75;;;17.00;55.60;;;;;;4976302;28;20062;-76
2023/03/20 11:17:54;;;;;;;;;;;17.10;55.50;;;;;;4975055;28;20137;-76
2023/03/20 11:20:20;;;;;;;8.43;1.60;;;17.10;55.60;;;;;;4975007;28;19964;-78
2023/03/20 11:22:48;;;;;;;7.55;1.35;;;16.90;56.00;;;;;;4959310;28;20031;-80
2023/03/20 11:25:30;;;;;;;5.45;1.40;;;16.90;55.80;;;;;;4973116;28;20042;-80
2023/03/20 11:27:57;;;;;;;7.28;1.60;;;16.90;55.30;;;;;;4976812;28;20541;-79
2023/03/20 11:30:23;;;;;;;5.80;1.60;;;16.80;56.30;;;;;;4974345;28;20416;-79
2023/03/20 11:32:53;;;;;;;6.07;1.33;;;16.90;56.20;;;;;;4958912;28;20034;-79
2023/03/20 11:35:25;;;;;;;;;;;16.80;56.10;;;;;;4970889;28;20471;-78
2023/03/20 11:37:52;;;;;;;7.03;1.80;;;16.70;56.80;;;;;;4975110;28;19941;-79
2023/03/20 11:40:30;;;;;;;9.95;1.67;;;16.80;56.80;;;;;;4963940;28;20086;-79
2023/03/20 11:43:05;;;;;;;4.60;1.45;;;16.90;55.80;;;;;;4953850;28;20023;-81
2023/03/20 11:45:35;;;;;;;6.20;1.80;;;16.70;56.00;;;;;;4975828;28;20026;-79
2023/03/20 11:48:03;;;;;;;4.38;2.00;;;16.80;56.50;;;;;;4960920;28;20045;-80
2023/03/20 11:50:33;;;;;;;3.30;1.13;;;16.70;55.90;;;;;;4978052;28;20102;-79
2023/03/20 11:53:16;;;;;;;7.70;1.67;;;16.70;57.00;;;;;;4963623;28;20115;-80
2023/03/20 11:55:45;;;;;;;5.70;2.13;;;16.40;56.30;;;;;;4961292;28;20059;-79
2023/03/20 11:58:15;;;;;;;4.90;1.67;;;16.50;57.10;;;;;;4966703;28;20042;-75
2023/03/20 12:00:41;;;;;;;4.15;1.27;;;16.70;57.30;;;;;;4970370;28;20029;-77
2023/03/20 12:03:43;;;;;;;6.10;2.00;;;16.80;56.70;;;;;;4977060;28;20174;-76
2023/03/20 12:06:19;;;;;;;7.25;1.38;;;16.70;56.20;;;;;;4975698;28;20023;-77
2023/03/20 12:09:09;;;;;;;10.73;2.17;;;16.60;56.60;;;;;;4959499;29;20034;-78
2023/03/20 12:11:52;;;;;;;6.50;2.00;;;16.60;56.70;;;;;;4964559;28;20035;-77
2023/03/20 12:14:46;;;;;;;5.30;1.85;;;16.30;57.00;;;;;;4958225;29;20479;-85
2023/03/20 12:17:38;;;;;;;4.47;1.73;;;16.60;57.80;;;;;;4958219;29;20505;-78
2023/03/20 12:20:33;;;;;;;6.65;1.50;;;16.80;56.50;;;;;;4957983;28;20023;-78
2023/03/20 12:23:08;;;;;;;6.57;1.83;;;16.80;55.80;;;;;;4959929;28;20395;-77
2023/03/20 12:25:48;;;;;;;10.07;2.35;;;16.90;56.60;;;;;;4972220;28;20630;-77
2023/03/20 12:28:21;;;;;;;7.30;2.47;;;17.00;56.80;;;;;;4976959;28;20122;-76
2023/03/20 12:31:06;;;;;;;4.30;1.50;;;17.10;55.50;;;;;;4959767;28;20070;-78
2023/03/20 12:33:52;;;;;;;5.60;1.33;;;17.00;55.20;;;;;;4956102;29;20122;-78
2023/03/20 12:36:44;;;;;;;7.20;1.95;;;17.20;55.40;;;;;;4970970;28;20030;-76
2023/03/20 12:39:17;;;;;;;11.15;2.22;;;17.10;55.90;;;;;;4991688;28;20117;-79
2023/03/20 12:41:43;;;;;;;5.65;1.70;;;16.80;55.50;;;;;;4959213;28;20031;-78
2023/03/20 12:44:32;;;;;;;6.03;1.55;;;17.00;56.20;;;;;;4957279;28;20024;-78
2023/03/20 12:47:15;;;;;;;12.25;2.35;;;17.10;56.00;;;;;;4957612;28;20079;-78
2023/03/20 12:50:00;;;;;;;7.47;2.80;;;17.20;55.50;;;;;;4966187;28;20114;-79
2023/03/20 12:52:36;;;;;;;5.35;1.90;;;17.20;55.60;;;;;;4967919;28;20714;-78
2023/03/20 12:55:20;;;;;;;5.20;1.77;;;17.10;56.70;;;;;;4969545;28;20029;-78
2023/03/20 12:57:58;;;;;;;6.03;1.38;;;17.00;55.90;;;;;;4969380;28;20034;-78
2023/03/20 13:00:36;;;;;;;8.55;2.38;;;17.10;56.30;;;;;;4957343;29;20570;-78
2023/03/20 13:03:23;;;;;;;6.75;1.88;;;17.20;54.90;;;;;;4972114;28;20461;-78
2023/03/20 13:06:01;;;;;;;7.05;1.90;;;17.10;55.10;;;;;;4972258;28;20035;-78
2023/03/20 13:08:29;;;;;;;5.03;2.00;;;17.00;57.20;;;;;;4978123;28;20038;-78
2023/03/20 13:11:12;;;;;;;4.38;1.60;;;17.00;56.10;;;;;;4976567;28;20425;-78
2023/03/20 13:14:01;;;;;;;7.53;2.53;;;17.10;56.90;;;;;;4955357;29;20800;-78
2023/03/20 13:16:43;;;;;;;11.85;2.47;;;17.20;56.10;;;;;;4957081;29;20486;-78
2023/03/20 13:19:31;;;;;;;5.63;2.15;;;17.30;56.40;;;;;;4957019;28;20393;-78
2023/03/20 13:22:21;;;;;;;7.88;1.98;;;17.20;56.40;;;;;;4960518;28;20034;-78
2023/03/20 13:24:49;;;;;;;;;;;17.20;56.00;;;;;;4976871;28;20070;-78
2023/03/20 13:27:30;;;;;;;7.80;1.85;;;17.20;56.40;;;;;;4954611;29;20415;-79
2023/03/20 13:30:06;;;;;;;7.80;2.20;;;17.10;56.10;;;;;;4957189;29;20501;-78
2023/03/20 13:33:10;;;;;;;5.18;1.45;;;16.90;55.20;;;;;;4971703;28;20051;-78
2023/03/20 13:35:45;;;;;;;5.18;1.40;;;16.80;55.60;;;;;;4936294;29;20051;-78
2023/03/20 13:38:20;;;;;;;8.52;2.22;;;16.70;56.20;;;;;;4971981;28;20038;-78
2023/03/20 13:40:49;;;;;;;13.00;2.30;;;16.80;56.60;;;;;;4957133;29;20024;-78
2023/03/20 13:43:15;;;;;;;7.88;1.73;;;16.50;57.20;;;;;;4955489;28;20171;-78
2023/03/20 13:45:42;;;;;;;5.28;1.95;;;16.50;57.10;;;;;;4955625;29;20064;-78
2023/03/20 13:48:23;;;;;;;4.05;1.70;;;16.50;57.30;;;;;;4961552;28;20035;-78
2023/03/20 13:50:52;;;;;;;5.97;1.40;;;16.40;57.80;;;;;;4972919;28;20553;-79
2023/03/20 13:53:57;;;;;;;6.63;1.70;;;16.40;57.60;;;;;;4974530;28;20027;-79
2023/03/20 13:56:54;;;;;;;5.28;1.80;;;16.30;57.50;;;;;;4959596;28;20041;-78
2023/03/20 13:59:45;;;;;;;5.00;1.80;;;16.20;57.50;;;;;;4977218;28;20517;-78
2023/03/20 14:02:29;;;;;;;3.63;1.63;;;16.40;58.00;;;;;;4978132;28;20026;-79
2023/03/20 14:05:11;;;;;;;7.07;1.85;;;16.60;58.10;;;;;;4975630;28;20022;-78
2023/03/20 14:07:42;;;;;;;8.75;2.15;;;16.80;57.70;;;;;;4978466;28;20072;-78
2023/03/20 14:10:30;;;;;;;9.50;2.47;;;16.90;57.00;;;;;;4978351;28;20042;-78
2023/03/20 14:13:16;;;;;;;7.55;1.90;;;16.80;57.10;;;;;;4950031;28;20490;-78
2023/03/20 14:15:54;;;;;;;4.43;1.80;;;16.80;57.30;;;;;;4977862;28;20038;-79
2023/03/20 14:18:22;;;;;;;6.88;1.98;;;16.80;57.50;;;;;;4960367;28;20497;-79
2023/03/20 14:21:12;;;;;;;5.93;1.70;;;16.80;57.40;;;;;;4978354;28;20023;-79
2023/03/20 14:23:45;;;;;;;10.05;1.80;;;16.80;57.50;;;;;;4978104;28;20047;-78
2023/03/20 14:26:25;;;;;;;9.73;2.10;;;16.90;58.20;;;;;;4977863;28;20042;-78
2023/03/20 14:28:54;;;;;;;11.60;1.95;;;16.80;58.30;;;;;;4960012;28;20038;-79
2023/03/20 14:31:33;;;;;;;6.97;1.45;;;16.80;57.50;;;;;;4978270;28;20055;-79
2023/03/20 14:34:10;;;;;;;7.25;1.88;;;16.80;57.20;;;;;;4956111;28;20038;-79
2023/03/20 14:36:58;;;;;;;6.45;1.60;;;16.80;57.60;;;;;;4977602;28;20034;-78
2023/03/20 14:39:29;;;;;;;8.70;2.28;;;16.80;57.50;;;;;;4975046;28;20019;-79
2023/03/20 14:42:01;;;;;;;7.75;1.92;;;16.80;57.60;;;;;;4977883;28;20055;-79
2023/03/20 14:45:04;;;;;;;8.57;1.92;;;16.80;57.40;;;;;;4964494;28;20038;-78
2023/03/20 14:47:41;;;;;;;4.32;1.52;;;16.80;56.80;;;;;;4971805;28;20039;-78
2023/03/20 14:50:29;;;;;;;9.48;1.60;;;16.90;57.00;;;;;;4960512;28;20031;-79
2023/03/20 14:52:57;;;;;;;5.38;1.65;;;16.80;57.40;;;;;;4960454;28;20154;-78
2023/03/20 14:55:29;;;;;;;6.18;2.10;;;16.80;56.20;;;;;;4972112;28;20039;-78
2023/03/20 14:57:56;;;;;;;4.45;1.27;;;16.80;56.10;;;;;;4977589;28;20089;-78
2023/03/20 15:00:21;;;;;;;9.70;1.90;;;16.80;56.10;;;;;;4958669;28;20469;-78
2023/03/20 15:02:50;;;;;;;6.07;1.75;;;16.70;56.40;;;;;;4977505;28;20038;-78
2023/03/20 15:05:30;;;;;;;7.45;1.92;;;16.70;56.60;;;;;;4960200;28;20433;-78
2023/03/20 15:08:01;;;;;;;9.32;1.52;;;16.70;57.10;;;;;;4974118;28;20085;-78
2023/03/20 15:10:27;;;;;;;7.20;1.48;;;16.60;56.60;;;;;;4976989;28;20062;-78
2023/03/20 15:12:54;;;;;;;4.18;1.73;;;16.60;57.10;;;;;;4976882;28;20034;-78
2023/03/20 15:15:50;;;;;;;7.78;2.28;;;16.50;57.20;;;;;;4975530;28;20484;-78
2023/03/20 15:18:15;;;;;;;9.30;1.50;;;16.50;57.60;;;;;;4976666;28;20031;-78
2023/03/20 15:20:44;;;;;;;4.03;1.42;;;16.40;56.90;;;;;;4977240;28;20030;-78
2023/03/20 15:23:09;;;;;;;5.65;1.58;;;16.30;57.60;;;;;;4976643;28;20106;-78
2023/03/20 15:25:42;;;;;;;6.97;1.60;;;16.30;57.60;;;;;;4976632;28;20058;-78
2023/03/20 15:28:13;;;;;;;8.43;1.70;;;16.20;57.40;;;;;;4976649;28;20117;-78
2023/03/20 15:30:40;;;;;;;8.98;1.85;;;16.20;58.00;;;;;;4956312;28;20035;-78
2023/03/20 15:33:11;;;;;;;2.00;1.23;;;16.30;58.20;;;;;;4976652;28;20071;-78
2023/03/20 15:35:37;;;;;;;6.65;1.52;;;16.30;58.20;;;;;;4959210;28;20037;-77
2023/03/20 15:38:06;;;;;;;7.43;1.85;;;16.30;58.00;;;;;;4972053;28;20466;-78
2023/03/20 15:40:33;;;;;;;3.47;1.50;;;16.30;58.30;;;;;;4972707;28;20721;-78
2023/03/20 15:43:17;;;;;;;5.07;1.60;;;16.30;58.10;;;;;;4959420;28;20058;-78
2023/03/20 15:45:43;;;;;;;8.63;1.80;;;16.40;58.60;;;;;;4976720;28;20027;-78
2023/03/20 15:48:14;;;;;;;6.13;1.85;;;16.50;58.50;;;;;;4971906;28;20093;-78
2023/03/20 15:50:45;;;;;;;6.63;1.50;;;16.50;58.60;;;;;;4976604;28;20027;-80
2023/03/20 15:53:19;;;;;;;11.25;1.95;;;16.60;58.20;;;;;;4958705;28;20035;-79
2023/03/20 15:55:52;;;;;;;7.97;1.60;;;16.60;58.40;;;;;;4958770;28;20038;-78
2023/03/20 15:58:18;;;;;;;4.60;1.65;;;16.50;57.80;;;;;;4976427;28;20118;-78
2023/03/20 16:00:46;;;;;;;5.05;1.55;;;16.40;58.10;;;;;;4958507;28;20122;-78
2023/03/20 16:03:18;;;;;;;7.60;2.15;;;16.30;58.60;;;;;;4976220;28;20049;-78
2023/03/20 16:05:45;;;;;;;8.35;2.08;;;16.30;59.00;;;;;;4973692;28;20025;-79
2023/03/20 16:08:18;;;;;;;3.63;1.50;;;16.50;59.00;;;;;;4976098;28;20066;-78
2023/03/20 16:10:44;;;;;;;8.57;1.77;;;16.50;59.10;;;;;;4975809;28;20030;-78
2023/03/20 16:13:15;;;;;;;7.93;1.60;;;16.50;59.20;;;;;;4974737;28;20069;-78
2023/03/20 16:15:42;;;;;;;5.25;1.90;;;16.40;58.30;;;;;;4975699;28;20101;-79
2023/03/20 16:18:13;;;;;;;5.25;1.98;;;16.40;58.60;;;;;;4955292;28;20023;-78
2023/03/20 16:20:45;;;;;;;6.35;1.50;;;16.30;59.00;;;;;;4974976;28;20042;-78
2023/03/20 16:23:26;;;;;;;7.05;1.73;;;16.40;58.70;;;;;;4973214;28;20027;-79
2023/03/20 16:25:55;;;;;;;;;;;16.30;58.80;;;;;;4974351;28;20042;-79
2023/03/20 16:28:21;;;;;;;6.05;1.73;;;16.30;58.40;;;;;;4957743;28;19906;-80
2023/03/20 16:30:49;;;;;;;8.50;1.45;;;16.30;58.60;;;;;;4954735;28;20057;-83
2023/03/20 16:33:16;;;;;;;4.22;1.75;;;16.20;59.10;;;;;;4953921;28;20125;-80
2023/03/20 16:35:46;;;;;;;5.20;1.65;;;16.20;58.50;;;;;;4943860;29;20046;-81
2023/03/20 16:38:35;;;;;;;6.20;1.53;;;16.20;58.80;;;;;;4939893;28;20035;-78
2023/03/20 16:41:15;;;;;;;9.40;2.40;;;16.20;59.20;;;;;;4940341;28;20286;-78
2023/03/20 16:43:46;;;;;;;4.05;1.30;;;16.20;59.20;;;;;;4952741;29;20458;-78
2023/03/20 16:46:19;;;;;;;4.63;2.22;;;16.30;59.30;;;;;;4950531;29;20035;-79
2023/03/20 16:48:45;;;;;;;6.63;1.48;;;16.20;59.30;;;;;;4948562;29;20035;-78
2023/03/20 16:51:27;;;;;;;3.50;1.63;;;16.20;59.50;;;;;;4953965;29;20086;-79
2023/03/20 16:53:55;;;;;;;2.88;1.35;;;16.10;59.50;;;;;;4950486;29;20080;-78
2023/03/20 16:56:28;;;;;;;5.90;1.98;;;16.00;59.40;;;;;;4955380;29;20035;-78
2023/03/20 16:58:54;;;;;;;4.00;1.42;;;15.90;59.00;;;;;;4951246;29;20027;-78
2023/03/20 17:01:22;;;;;;;5.22;1.58;;;15.90;59.20;;;;;;4890733;28;20115;-78
2023/03/20 17:03:57;;;;;;;4.20;1.75;;;15.90;59.60;;;;;;4948162;29;20446;-78
2023/03/20 17:06:34;;;;;;;3.97;1.52;;;15.80;59.60;;;;;;4948792;29;20029;-77
2023/03/20 17:09:23;;;;;;;2.72;1.65;;;15.80;59.60;;;;;;4953336;29;20502;-78
2023/03/20 17:12:09;;;;;;;11.70;1.90;;;15.80;59.60;;;;;;4953483;28;20422;-78
2023/03/20 17:14:35;;;;;;;5.65;1.58;;;15.70;59.50;;;;;;4950734;29;20027;-78
2023/03/20 17:17:00;;;;;;;5.30;1.40;;;15.70;59.70;;;;;;4953605;29;20039;-78
2023/03/20 17:19:26;;;;;;;6.38;1.70;;;15.70;59.80;;;;;;4953928;29;20094;-79
2023/03/20 17:21:52;;;;;;;2.22;1.35;;;15.60;60.20;;;;;;4955150;28;20095;-82
2023/03/20 17:24:18;;;;;;;6.75;1.50;;;15.60;59.90;;;;;;4955383;29;20031;-79
2023/03/20 17:26:50;;;;;;;5.55;1.50;;;15.60;59.70;;;;;;4954323;29;20038;-79
2023/03/20 17:29:16;;;;;;;8.63;1.80;;;15.50;59.20;;;;;;4951833;29;20036;-79
2023/03/20 17:31:42;;;;;;;7.07;1.58;;;15.40;59.40;;;;;;4970846;28;20094;-79
2023/03/20 17:34:11;;;;;;;4.95;1.45;;;15.30;59.40;;;;;;4962784;28;20493;-79
2023/03/20 17:36:37;;;;;;;4.97;1.42;;;15.30;59.70;;;;;;4971884;28;20047;-79
2023/03/20 17:39:03;;;;;;;4.53;1.48;;;15.20;59.90;;;;;;4976021;28;20035;-79
2023/03/20 17:41:29;;;;;;;4.18;1.42;;;15.20;59.50;;;;;;4976839;28;20033;-79
2023/03/20 17:43:57;;;;;;;6.03;1.70;;;15.10;59.30;;;;;;4965872;28;20087;-79
2023/03/20 17:46:25;;;;;;;5.88;1.60;;;15.00;59.60;;;;;;4978226;28;20031;-78
2023/03/20 17:48:56;;;;;;;8.52;1.27;;;15.00;59.70;;;;;;4971220;28;20085;-77
2023/03/20 17:51:22;;;;;;;3.95;1.85;;;14.90;59.40;;;;;;4978661;28;20066;-78
2023/03/20 17:53:47;;;;;;;3.92;1.00;;;14.90;59.60;;;;;;4976918;28;20081;-78
2023/03/20 17:56:15;;;;;;;4.95;1.35;;;14.80;59.50;;;;;;4978855;28;20031;-78
2023/03/20 17:58:43;;;;;;;3.17;0.90;;;14.80;59.70;;;;;;4978752;28;20504;-82
2023/03/20 18:01:09;;;;;;;2.28;1.00;;;14.80;60.00;;;;;;4979774;28;20019;-80
2023/03/20 18:03:35;;;;;;;5.32;1.50;;;14.60;60.00;;;;;;4979493;28;20035;-79
2023/03/20 18:06:02;;;;;;;3.67;1.42;;;14.60;60.40;;;;;;4966891;28;20509;-84
2023/03/20 18:08:27;;;;;;;4.40;1.30;;;14.50;60.30;;;;;;4972343;28;20032;-78
2023/03/20 18:10:53;;;;;;;7.97;1.45;;;14.50;60.50;;;;;;4975437;28;20074;-76
2023/03/20 18:13:20;;;;;;;3.08;0.93;;;14.40;60.70;;;;;;4991316;28;20039;-77
2023/03/20 18:15:48;;;;;;;3.60;1.25;;;14.40;60.90;;;;;;4979044;28;20026;-77
2023/03/20 18:18:14;;;;;;;3.60;1.30;;;14.40;61.60;;;;;;4960852;28;20027;-79
2023/03/20 18:20:41;;;;;;;4.78;1.38;;;14.30;61.70;;;;;;4961173;28;20023;-77
2023/03/20 18:23:07;;;;;;;2.80;1.08;;;14.30;61.80;;;;;;4978024;28;20516;-77
2023/03/20 18:25:33;;;;;;;4.35;1.90;;;14.30;61.80;;;;;;4974246;28;20034;-77
2023/03/20 18:28:01;;;;;;;5.53;1.20;;;14.20;61.90;;;;;;4977771;28;20042;-81
2023/03/20 18:30:32;;;;;;;7.88;1.83;;;14.20;62.20;;;;;;4975752;28;20026;-81
2023/03/20 18:32:57;;;;;;;4.07;1.80;;;14.20;62.20;;;;;;4960317;28;20121;-79
2023/03/20 18:35:23;;;;;;;6.78;1.95;;;14.10;62.40;;;;;;4960935;28;20022;-79
2023/03/20 18:37:48;;;;;;;6.70;2.00;;;14.10;62.60;;;;;;4959504;28;20082;-78
2023/03/20 18:40:21;;;;;;;3.55;1.63;;;14.00;62.80;;;;;;4978849;28;20147;-77